createdAt,value
2023-05-26T00:01:54.058Z,20.75
2023-05-26T00:04:22.643Z,23.35
2023-05-26T00:06:54.493Z,22.48
2023-05-26T00:09:25.307Z,22.73
2023-05-26T00:11:54.040Z,23.58
2023-05-26T00:14:22.536Z,25.20
2023-05-26T00:16:50.966Z,24.48
2023-05-26T00:19:20.830Z,23.70
2023-05-26T00:21:49.384Z,24.02
2023-05-26T00:24:17.844Z,24.48
2023-05-26T00:26:47.842Z,22.13
2023-05-26T00:29:28.570Z,26.42
2023-05-26T00:31:59.049Z,23.13
2023-05-26T00:34:27.513Z,24.23
2023-05-26T00:36:55.998Z,22.83
2023-05-26T00:39:24.519Z,23.40
2023-05-26T00:41:54.613Z,22.50
2023-05-26T00:44:23.481Z,22.33
2023-05-26T00:46:52.013Z,21.63
2023-05-26T00:49:20.659Z,22.63
2023-05-26T00:51:49.526Z,22.27
2023-05-26T00:54:18.364Z,22.58
2023-05-26T00:56:46.895Z,22.02
2023-05-26T00:59:17.022Z,23.45
2023-05-26T01:01:46.134Z,22.38
2023-05-26T01:04:15.078Z,22.17
2023-05-26T01:06:46.087Z,22.33
2023-05-26T01:09:15.306Z,24.40
2023-05-26T01:11:49.078Z,22.70
2023-05-26T01:14:27.776Z,24.58
2023-05-26T01:17:02.772Z,20.35
2023-05-26T01:20:03.166Z,21.95
2023-05-26T01:22:52.356Z,23.85
2023-05-26T01:25:33.285Z,22.05
2023-05-26T01:28:08.234Z,22.08
2023-05-26T01:30:37.280Z,22.38
2023-05-26T01:33:06.056Z,22.98
2023-05-26T01:35:34.605Z,21.65
2023-05-26T01:38:04.097Z,23.45
2023-05-26T01:40:33.167Z,22.77
2023-05-26T01:43:05.641Z,22.60
2023-05-26T01:45:41.176Z,23.00
2023-05-26T01:48:11.621Z,22.83
2023-05-26T01:50:44.334Z,24.00
2023-05-26T01:53:14.619Z,22.80
2023-05-26T01:55:44.694Z,23.63
2023-05-26T01:58:13.799Z,22.25
2023-05-26T02:00:49.600Z,26.63
2023-05-26T02:03:18.785Z,21.65
2023-05-26T02:05:47.840Z,22.60
2023-05-26T02:08:16.589Z,22.42
2023-05-26T02:10:45.028Z,23.65
2023-05-26T02:13:13.491Z,23.23
2023-05-26T02:15:42.167Z,24.30
2023-05-26T02:18:13.301Z,23.90
2023-05-26T02:20:41.937Z,24.70
2023-05-26T02:23:10.606Z,22.90
2023-05-26T02:25:39.094Z,23.15
2023-05-26T02:28:07.628Z,23.42
2023-05-26T02:30:36.151Z,25.00
2023-05-26T02:33:04.824Z,23.15
2023-05-26T02:35:34.737Z,23.23
2023-05-26T02:38:03.236Z,21.45
2023-05-26T02:40:31.756Z,24.90
2023-05-26T02:43:00.251Z,23.45
2023-05-26T02:45:28.749Z,25.73
2023-05-26T02:47:57.266Z,24.40
2023-05-26T02:50:25.801Z,24.20
2023-05-26T02:52:55.726Z,24.60
2023-05-26T02:55:26.013Z,24.13
2023-05-26T02:57:56.171Z,25.02
2023-05-26T03:00:24.628Z,25.15
2023-05-26T03:02:53.131Z,22.63
2023-05-26T03:05:21.771Z,25.33
2023-05-26T03:07:50.263Z,25.02
2023-05-26T03:10:21.326Z,24.85
2023-05-26T03:12:49.987Z,23.48
2023-05-26T03:15:18.453Z,25.35
2023-05-26T03:17:47.048Z,24.88
2023-05-26T03:20:15.623Z,26.25
2023-05-26T03:22:52.707Z,26.30
2023-05-26T03:25:23.635Z,26.48
2023-05-26T03:27:52.160Z,25.80
2023-05-26T03:30:20.725Z,25.27
2023-05-26T03:32:49.215Z,25.25
2023-05-26T03:35:17.765Z,25.15
2023-05-26T03:37:46.257Z,24.25
2023-05-26T03:40:15.493Z,24.17
2023-05-26T03:42:45.363Z,26.50
2023-05-26T03:45:14.860Z,23.75
2023-05-26T03:47:43.652Z,22.45
2023-05-26T03:50:12.668Z,24.55
2023-05-26T03:52:41.813Z,20.83
2023-05-26T03:55:12.179Z,22.42
2023-05-26T03:57:40.821Z,21.42
2023-05-26T04:00:12.579Z,20.75
2023-05-26T04:02:41.203Z,21.85
2023-05-26T04:05:10.669Z,20.25
2023-05-26T04:07:39.190Z,20.48
2023-05-26T04:10:08.702Z,21.10
2023-05-26T04:12:37.250Z,19.30
2023-05-26T04:15:06.499Z,17.92
2023-05-26T04:17:36.460Z,19.67
2023-05-26T04:20:07.111Z,18.85
2023-05-26T04:22:35.697Z,19.95
2023-05-26T04:25:04.632Z,18.70
2023-05-26T04:27:33.104Z,17.33
2023-05-26T04:30:02.186Z,18.10
2023-05-26T04:32:30.840Z,18.10
2023-05-26T04:35:01.555Z,20.23
2023-05-26T04:37:33.726Z,18.73
2023-05-26T04:40:06.756Z,19.00
2023-05-26T04:42:36.018Z,19.83
2023-05-26T04:45:04.992Z,18.65
2023-05-26T04:47:36.302Z,17.27
2023-05-26T04:50:08.090Z,21.00
2023-05-26T04:52:36.752Z,16.35
2023-05-26T04:55:05.772Z,17.70
2023-05-26T04:57:34.312Z,16.73
2023-05-26T05:00:06.960Z,15.80
2023-05-26T05:02:35.644Z,15.52
2023-05-26T05:05:05.813Z,13.95
2023-05-26T05:07:34.758Z,13.50
2023-05-26T05:10:03.870Z,12.75
2023-05-26T05:12:32.631Z,16.90
2023-05-26T05:15:01.581Z,15.88
2023-05-26T05:17:30.133Z,14.77
2023-05-26T05:20:13.509Z,15.80
2023-05-26T05:22:44.826Z,14.50
2023-05-26T05:25:13.423Z,13.90
2023-05-26T05:27:41.959Z,14.70
2023-05-26T05:30:12.664Z,14.75
2023-05-26T05:32:41.503Z,14.05
2023-05-26T05:35:11.534Z,14.38
2023-05-26T05:37:40.367Z,14.65
2023-05-26T05:40:11.378Z,12.98
2023-05-26T05:42:39.837Z,14.45
2023-05-26T05:45:09.367Z,12.60
2023-05-26T05:47:38.122Z,14.07
2023-05-26T05:50:09.072Z,12.32
2023-05-26T05:52:37.949Z,12.20
2023-05-26T05:55:07.006Z,11.85
2023-05-26T05:57:37.002Z,11.57
2023-05-26T06:00:06.732Z,9.57
2023-05-26T06:02:35.403Z,10.43
2023-05-26T06:05:04.146Z,10.70
2023-05-26T06:07:32.655Z,11.43
2023-05-26T06:10:01.205Z,10.00
2023-05-26T06:12:29.751Z,11.35
2023-05-26T06:14:59.814Z,13.77
2023-05-26T06:17:28.340Z,14.27
2023-05-26T06:19:56.863Z,12.50
2023-05-26T06:22:25.365Z,13.00
2023-05-26T06:24:53.844Z,10.82
2023-05-26T06:27:22.364Z,12.50
2023-05-26T06:29:50.932Z,11.63
2023-05-26T06:32:21.226Z,12.52
2023-05-26T06:34:49.831Z,12.35
2023-05-26T06:37:18.280Z,11.05
2023-05-26T06:39:46.772Z,10.57
2023-05-26T06:42:15.323Z,14.48
2023-05-26T06:44:44.226Z,9.05
2023-05-26T06:47:13.058Z,8.93
2023-05-26T06:49:42.999Z,13.25
2023-05-26T06:52:11.473Z,11.55
2023-05-26T06:54:39.983Z,11.40
2023-05-26T06:57:08.415Z,9.57
2023-05-26T06:59:36.835Z,11.73
2023-05-26T07:02:05.753Z,9.35
2023-05-26T07:04:35.159Z,12.60
2023-05-26T07:07:05.777Z,8.95
2023-05-26T07:09:34.458Z,10.95
2023-05-26T07:12:03.325Z,9.68
2023-05-26T07:14:31.784Z,9.88
2023-05-26T07:17:00.270Z,11.45
2023-05-26T07:19:28.988Z,8.38
2023-05-26T07:21:57.664Z,11.50
2023-05-26T07:24:27.560Z,9.27
2023-05-26T07:26:56.396Z,10.07
2023-05-26T07:29:24.967Z,8.52
2023-05-26T07:31:53.549Z,6.97
2023-05-26T07:34:22.594Z,7.05
2023-05-26T07:36:51.299Z,8.82
2023-05-26T07:39:20.072Z,8.90
2023-05-26T07:41:51.772Z,11.55
2023-05-26T07:44:23.569Z,7.93
2023-05-26T07:46:52.404Z,7.97
2023-05-26T07:49:20.907Z,9.60
2023-05-26T07:51:49.360Z,13.00
2023-05-26T07:54:17.938Z,10.57
2023-05-26T07:56:46.450Z,6.88
2023-05-26T07:59:17.900Z,7.68
2023-05-26T08:01:46.934Z,10.82
2023-05-26T08:04:15.494Z,6.95
2023-05-26T08:06:44.033Z,6.30
2023-05-26T08:09:12.782Z,6.40
2023-05-26T08:11:41.518Z,6.22
2023-05-26T08:14:10.388Z,6.90
2023-05-26T08:16:40.551Z,6.75
2023-05-26T08:19:09.618Z,6.00
2023-05-26T08:21:38.387Z,7.53
2023-05-26T08:24:07.296Z,6.32
2023-05-26T08:26:35.924Z,9.88
2023-05-26T08:29:04.465Z,7.97
2023-05-26T08:31:33.039Z,18.35
2023-05-26T08:34:03.176Z,8.93
2023-05-26T08:36:31.597Z,8.10
2023-05-26T08:39:00.295Z,6.72
2023-05-26T08:41:36.768Z,6.57
2023-05-26T08:44:07.942Z,6.40
2023-05-26T08:46:38.892Z,6.95
2023-05-26T08:49:10.485Z,9.90
2023-05-26T08:51:46.184Z,8.18
2023-05-26T08:54:15.320Z,5.93
2023-05-26T08:56:45.221Z,7.72
2023-05-26T08:59:16.152Z,6.25
2023-05-26T09:01:44.786Z,8.52
2023-05-26T09:04:14.900Z,8.55
2023-05-26T09:06:59.027Z,8.82
2023-05-26T09:09:36.558Z,7.20
2023-05-26T09:12:10.812Z,7.38
2023-05-26T09:14:39.990Z,8.10
2023-05-26T09:17:08.788Z,9.10
2023-05-26T09:19:39.639Z,7.82
2023-05-26T09:22:09.341Z,6.25
2023-05-26T09:24:56.267Z,14.30
2023-05-26T09:27:25.366Z,17.63
2023-05-26T09:29:56.117Z,7.90
2023-05-26T09:32:28.000Z,6.75
2023-05-26T09:35:00.577Z,6.32
2023-05-26T09:37:30.545Z,36.80
2023-05-26T09:40:09.506Z,7.05
2023-05-26T09:42:39.764Z,9.25
2023-05-26T09:45:08.703Z,8.65
2023-05-26T09:47:37.552Z,9.77
2023-05-26T09:50:08.951Z,8.95
2023-05-26T09:52:38.432Z,6.40
2023-05-26T09:55:08.110Z,6.40
2023-05-26T09:57:39.490Z,7.03
2023-05-26T10:00:11.935Z,6.35
2023-05-26T10:02:42.331Z,11.60
2023-05-26T10:05:13.453Z,6.22
2023-05-26T10:07:44.393Z,5.70
2023-05-26T10:10:16.147Z,5.95
2023-05-26T10:12:45.720Z,7.10
2023-05-26T10:15:14.779Z,6.28
2023-05-26T10:17:43.632Z,6.25
2023-05-26T10:20:14.280Z,8.18
2023-05-26T10:22:49.060Z,13.88
2023-05-26T10:25:23.050Z,5.68
2023-05-26T10:28:01.914Z,7.38
2023-05-26T10:30:31.512Z,5.97
2023-05-26T10:33:10.788Z,5.95
2023-05-26T10:35:54.112Z,5.85
2023-05-26T10:38:28.502Z,6.05
2023-05-26T10:40:57.137Z,6.10
2023-05-26T10:43:27.187Z,7.65
2023-05-26T10:45:58.694Z,7.00
2023-05-26T10:48:28.195Z,6.93
2023-05-26T10:51:26.924Z,6.57
2023-05-26T10:53:57.672Z,8.38
2023-05-26T10:56:36.055Z,6.22
2023-05-26T10:59:05.728Z,6.57
2023-05-26T11:01:35.020Z,6.00
2023-05-26T11:04:11.320Z,7.15
2023-05-26T11:06:49.975Z,6.80
2023-05-26T11:09:22.214Z,6.18
2023-05-26T11:11:56.059Z,4.60
2023-05-26T11:14:27.007Z,7.45
2023-05-26T11:16:59.280Z,6.25
2023-05-26T11:19:33.334Z,6.50
2023-05-26T11:22:05.694Z,7.10
2023-05-26T11:24:34.633Z,9.80
2023-05-26T11:27:03.950Z,6.22
2023-05-26T11:29:32.656Z,7.22
2023-05-26T11:32:01.349Z,7.03
2023-05-26T11:34:29.960Z,5.65
2023-05-26T11:36:59.827Z,7.35
2023-05-26T11:39:36.194Z,5.32
2023-05-26T11:42:12.453Z,4.95
2023-05-26T11:44:41.350Z,5.80
2023-05-26T11:47:13.312Z,7.90
2023-05-26T11:49:48.015Z,7.50
2023-05-26T11:52:19.064Z,8.45
2023-05-26T11:54:48.978Z,6.38
2023-05-26T11:57:32.367Z,6.53
2023-05-26T12:00:01.102Z,6.28
2023-05-26T12:02:29.776Z,10.50
2023-05-26T12:04:58.443Z,6.03
2023-05-26T12:07:31.544Z,5.55
2023-05-26T12:10:10.948Z,7.00
2023-05-26T12:12:49.353Z,6.72
2023-05-26T12:15:21.502Z,7.00
2023-05-26T12:17:50.139Z,10.25
2023-05-26T12:20:37.872Z,5.88
2023-05-26T12:23:12.838Z,4.93
2023-05-26T12:25:46.012Z,6.03
2023-05-26T12:28:14.511Z,6.72
2023-05-26T12:33:14.791Z,9.70
2023-05-26T12:35:43.309Z,7.15
2023-05-26T12:38:15.017Z,13.50
2023-05-26T12:40:45.105Z,7.97
2023-05-26T12:43:13.481Z,7.03
2023-05-26T12:45:42.328Z,5.57
2023-05-26T12:48:10.918Z,7.57
2023-05-26T12:50:39.515Z,4.80
2023-05-26T12:53:07.970Z,7.57
2023-05-26T12:55:36.429Z,5.07
2023-05-26T12:58:06.675Z,5.53
2023-05-26T13:00:35.075Z,7.85
2023-05-26T13:03:03.794Z,6.63
2023-05-26T13:05:32.453Z,9.25
2023-05-26T13:08:00.941Z,8.30
2023-05-26T13:10:29.443Z,7.00
2023-05-26T13:12:58.731Z,7.03
2023-05-26T13:15:28.669Z,6.70
2023-05-26T13:17:58.281Z,10.35
2023-05-26T13:20:28.526Z,6.18
2023-05-26T13:22:57.099Z,6.35
2023-05-26T13:25:25.515Z,6.35
2023-05-26T13:27:54.043Z,8.10
2023-05-26T13:30:22.859Z,8.23
2023-05-26T13:32:52.948Z,6.13
2023-05-26T13:35:21.543Z,5.82
2023-05-26T13:37:50.342Z,7.57
2023-05-26T13:40:19.412Z,7.45
2023-05-26T13:42:48.984Z,6.03
2023-05-26T13:45:18.238Z,11.93
2023-05-26T13:47:47.237Z,9.13
2023-05-26T13:50:21.551Z,8.43
2023-05-26T13:52:51.008Z,5.25
2023-05-26T13:55:19.658Z,8.27
2023-05-26T13:57:48.188Z,7.18
2023-05-26T14:00:17.023Z,6.53
2023-05-26T14:02:45.810Z,6.25
2023-05-26T14:05:15.972Z,6.43
2023-05-26T14:07:45.895Z,5.55
2023-05-26T14:10:14.529Z,6.45
2023-05-26T14:12:43.430Z,5.95
2023-05-26T14:15:12.321Z,6.00
2023-05-26T14:17:41.009Z,7.07
2023-05-26T14:21:37.222Z,4.97
2023-05-26T14:23:00.198Z,4.93
2023-05-26T14:25:29.280Z,6.43
2023-05-26T14:27:57.846Z,5.90
2023-05-26T14:30:26.443Z,5.57
2023-05-26T14:32:55.161Z,5.50
2023-05-26T14:35:23.767Z,7.00
2023-05-26T14:37:52.282Z,6.30
2023-05-26T14:40:22.241Z,7.80
2023-05-26T14:42:50.675Z,9.75
2023-05-26T14:45:19.167Z,7.25
2023-05-26T14:47:47.823Z,8.93
2023-05-26T14:50:16.340Z,8.20
2023-05-26T14:52:44.736Z,9.27
2023-05-26T14:55:13.222Z,5.72
2023-05-26T14:57:43.504Z,8.07
2023-05-26T15:00:13.496Z,8.00
2023-05-26T15:02:42.372Z,9.40
2023-05-26T15:05:11.473Z,7.93
2023-05-26T15:07:39.983Z,6.78
2023-05-26T15:10:08.782Z,6.18
2023-05-26T15:12:38.303Z,8.77
2023-05-26T15:15:09.739Z,8.43
2023-05-26T15:17:38.391Z,5.20
2023-05-26T15:20:08.764Z,5.38
2023-05-26T15:22:37.596Z,5.72
2023-05-26T15:25:06.866Z,6.28
2023-05-26T15:27:35.348Z,8.48
2023-05-26T15:30:04.252Z,6.63
2023-05-26T15:32:34.209Z,6.28
2023-05-26T15:35:03.098Z,8.90
2023-05-26T15:37:39.315Z,7.82
2023-05-26T15:40:12.316Z,6.22
2023-05-26T15:42:40.733Z,6.22
2023-05-26T15:45:10.348Z,10.52
2023-05-26T15:47:40.233Z,8.20
2023-05-26T15:50:10.403Z,7.60
2023-05-26T15:52:38.837Z,10.73
2023-05-26T15:55:08.393Z,8.35
2023-05-26T15:57:36.898Z,6.35
2023-05-26T16:00:06.623Z,7.15
2023-05-26T16:02:35.238Z,6.93
2023-05-26T16:05:05.364Z,7.00
2023-05-26T16:07:33.896Z,7.15
2023-05-26T16:10:02.328Z,6.60
2023-05-26T16:12:30.799Z,6.18
2023-05-26T16:14:59.240Z,6.32
2023-05-26T16:17:27.736Z,6.18
2023-05-26T16:19:56.329Z,5.65
2023-05-26T16:22:26.368Z,8.38
2023-05-26T16:24:54.792Z,7.00
2023-05-26T16:27:23.305Z,5.68
2023-05-26T16:29:51.785Z,6.80
2023-05-26T16:32:20.299Z,6.53
2023-05-26T16:34:48.796Z,9.50
2023-05-26T16:37:17.276Z,8.73
2023-05-26T16:39:47.233Z,9.05
2023-05-26T16:42:15.752Z,7.50
2023-05-26T16:44:44.234Z,8.80
2023-05-26T16:47:12.881Z,8.07
2023-05-26T16:49:41.429Z,6.93
2023-05-26T16:52:09.865Z,6.10
2023-05-26T16:54:38.313Z,7.03
2023-05-26T16:57:08.952Z,8.18
2023-05-26T16:59:37.576Z,6.40
2023-05-26T17:02:06.474Z,6.97
2023-05-26T17:04:34.933Z,7.10
2023-05-26T17:07:03.431Z,6.70
2023-05-26T17:09:32.492Z,6.63
2023-05-26T17:12:02.956Z,8.98
2023-05-26T17:14:33.880Z,7.13
2023-05-26T17:17:03.155Z,7.07
2023-05-26T17:19:31.968Z,6.68
2023-05-26T17:22:01.392Z,6.53
2023-05-26T17:24:30.001Z,6.63
2023-05-26T17:26:58.526Z,7.63
2023-05-26T17:29:27.420Z,7.25
2023-05-26T17:31:57.456Z,7.25
2023-05-26T17:34:26.580Z,7.28
2023-05-26T17:36:55.184Z,6.70
2023-05-26T17:39:24.222Z,6.93
2023-05-26T17:41:52.962Z,7.25
2023-05-26T17:44:21.686Z,7.25
2023-05-26T17:46:50.221Z,7.60
2023-05-26T17:49:20.333Z,7.55
2023-05-26T17:51:48.849Z,6.88
2023-05-26T17:54:17.347Z,10.07
2023-05-26T17:56:45.852Z,8.27
2023-05-26T17:59:14.329Z,10.07
2023-05-26T18:01:42.848Z,9.30
2023-05-26T18:04:11.479Z,7.50
2023-05-26T18:06:41.644Z,9.00
2023-05-26T18:09:10.553Z,11.68
2023-05-26T18:11:39.045Z,9.05
2023-05-26T18:14:07.557Z,13.75
2023-05-26T18:16:36.338Z,8.77
2023-05-26T18:19:05.053Z,8.25
2023-05-26T18:21:33.652Z,8.90
2023-05-26T18:24:03.519Z,7.22
2023-05-26T18:26:32.413Z,7.47
2023-05-26T18:29:01.690Z,7.00
2023-05-26T18:31:30.859Z,10.00
2023-05-26T18:34:06.595Z,7.40
2023-05-26T18:36:41.334Z,7.28
2023-05-26T18:39:11.584Z,9.65
2023-05-26T18:41:40.132Z,7.28
2023-05-26T18:44:08.697Z,11.40
2023-05-26T18:46:37.257Z,9.73
2023-05-26T18:49:05.971Z,7.40
2023-05-26T18:51:34.670Z,9.30
2023-05-26T18:54:03.198Z,7.72
2023-05-26T18:56:33.557Z,13.75
2023-05-26T18:59:02.205Z,8.07
2023-05-26T19:01:30.927Z,11.75
2023-05-26T19:04:01.469Z,8.00
2023-05-26T19:06:30.434Z,10.02
2023-05-26T19:08:58.922Z,8.95
2023-05-26T19:11:28.522Z,13.20
2023-05-26T19:13:58.441Z,10.55
2023-05-26T19:16:27.060Z,9.90
2023-05-26T19:18:55.710Z,9.65
2023-05-26T19:21:24.263Z,10.45
2023-05-26T19:23:52.748Z,7.70
2023-05-26T19:26:21.240Z,7.85
2023-05-26T19:28:54.810Z,8.65
2023-05-26T19:31:34.851Z,7.15
2023-05-26T19:34:03.414Z,11.80
2023-05-26T19:36:32.256Z,8.38
2023-05-26T19:39:00.994Z,9.43
2023-05-26T19:41:30.174Z,9.13
2023-05-26T19:43:58.919Z,10.77
2023-05-26T19:46:27.561Z,9.30
2023-05-26T19:48:57.822Z,8.75
2023-05-26T19:51:26.422Z,9.88
2023-05-26T19:53:54.949Z,9.90
2023-05-26T19:56:23.489Z,9.23
2023-05-26T19:58:52.033Z,9.15
2023-05-26T20:01:21.452Z,8.77
2023-05-26T20:03:51.319Z,9.00
2023-05-26T20:06:21.304Z,10.15
2023-05-26T20:08:49.790Z,16.15
2023-05-26T20:11:20.265Z,8.98
2023-05-26T20:13:49.171Z,9.07
2023-05-26T20:16:17.797Z,9.52
2023-05-26T20:18:46.926Z,11.45
2023-05-26T20:21:15.417Z,9.38
2023-05-26T20:23:45.327Z,8.73
2023-05-26T20:26:13.899Z,9.68
2023-05-26T20:28:42.382Z,10.90
2023-05-26T20:31:10.939Z,7.72
2023-05-26T20:33:39.515Z,8.02
2023-05-26T20:36:08.617Z,7.53
2023-05-26T20:38:38.159Z,8.70
2023-05-26T20:41:09.128Z,11.05
2023-05-26T20:43:37.636Z,7.35
2023-05-26T20:46:06.586Z,6.88
2023-05-26T20:48:35.410Z,7.20
2023-05-26T20:51:04.096Z,7.85
2023-05-26T20:53:32.699Z,8.63
2023-05-26T20:56:01.292Z,8.40
2023-05-26T20:58:31.467Z,6.93
2023-05-26T21:00:59.964Z,7.20
2023-05-26T21:03:28.691Z,8.02
2023-05-26T21:05:57.274Z,7.05
2023-05-26T21:08:26.482Z,7.68
2023-05-26T21:10:54.974Z,7.65
2023-05-26T21:13:23.528Z,6.22
2023-05-26T21:15:53.616Z,7.97
2023-05-26T21:18:22.148Z,9.40
2023-05-26T21:20:51.375Z,8.63
2023-05-26T21:23:19.908Z,8.13
2023-05-26T21:25:48.772Z,8.35
2023-05-26T21:28:17.460Z,9.70
2023-05-26T21:30:46.103Z,7.43
2023-05-26T21:33:16.091Z,7.88
2023-05-26T21:35:44.785Z,9.70
2023-05-26T21:38:13.301Z,9.43
2023-05-26T21:40:41.858Z,6.80
2023-05-26T21:43:10.351Z,8.25
2023-05-26T21:45:38.854Z,8.70
2023-05-26T21:48:07.383Z,9.98
2023-05-26T21:50:37.390Z,7.60
2023-05-26T21:53:05.879Z,7.57
2023-05-26T21:55:34.506Z,8.88
2023-05-26T21:58:03.073Z,10.88
2023-05-26T22:00:31.692Z,9.93
2023-05-26T22:03:00.225Z,7.38
2023-05-26T22:05:28.935Z,8.80
2023-05-26T22:07:58.849Z,7.00
2023-05-26T22:10:28.200Z,10.30
2023-05-26T22:12:56.748Z,7.70
2023-05-26T22:15:25.498Z,10.95
2023-05-26T22:17:54.292Z,6.30
2023-05-26T22:20:22.846Z,5.35
2023-05-26T22:22:51.379Z,9.32
2023-05-26T22:25:21.755Z,6.63
2023-05-26T22:27:50.211Z,9.27
2023-05-26T22:30:18.754Z,8.40
2023-05-26T22:32:47.416Z,8.27
2023-05-26T22:35:16.356Z,8.25
2023-05-26T22:37:44.913Z,7.60
2023-05-26T22:40:13.720Z,8.15
2023-05-26T22:42:43.555Z,8.40
2023-05-26T22:45:12.703Z,6.32
2023-05-26T22:47:41.494Z,6.97
2023-05-26T22:50:10.746Z,7.63
2023-05-26T22:52:40.553Z,7.88
2023-05-26T22:55:09.897Z,7.97
2023-05-26T22:57:38.345Z,9.50
2023-05-26T23:00:09.649Z,8.38
2023-05-26T23:02:38.313Z,8.32
2023-05-26T23:05:08.059Z,6.78
2023-05-26T23:07:36.583Z,5.10
2023-05-26T23:10:07.482Z,7.05
2023-05-26T23:12:35.982Z,7.22
2023-05-26T23:15:05.243Z,9.35
2023-05-26T23:17:35.288Z,7.72
2023-05-26T23:20:03.934Z,6.40
2023-05-26T23:22:32.492Z,10.00
2023-05-26T23:25:00.939Z,8.05
2023-05-26T23:27:29.418Z,7.63
2023-05-26T23:29:57.855Z,6.28
2023-05-26T23:32:26.711Z,8.55
2023-05-26T23:34:56.593Z,7.40
2023-05-26T23:37:25.118Z,6.10
2023-05-26T23:39:53.537Z,7.80
2023-05-26T23:42:22.087Z,8.55
2023-05-26T23:44:51.616Z,9.20
2023-05-26T23:47:20.159Z,6.78
2023-05-26T23:49:50.979Z,5.25
2023-05-26T23:52:20.858Z,5.75
2023-05-26T23:54:49.309Z,6.18
2023-05-26T23:57:17.832Z,5.60
2023-05-26T23:59:46.361Z,7.93
